createdAt,value
2019-05-22T00:02:12.295Z,51.10
2019-05-22T00:04:52.570Z,50.27
2019-05-22T00:07:28.619Z,52.87
2019-05-22T00:10:02.595Z,52.27
2019-05-22T00:12:46.845Z,54.43
2019-05-22T00:15:17.004Z,53.30
2019-05-22T00:17:51.072Z,56.50
2019-05-22T00:20:27.233Z,54.73
2019-05-22T00:23:01.870Z,51.57
2019-05-22T00:25:35.802Z,55.57
2019-05-22T00:28:08.348Z,55.47
2019-05-22T00:30:44.453Z,56.70
2019-05-22T00:33:17.103Z,53.00
2019-05-22T00:35:52.435Z,51.47
2019-05-22T00:38:26.680Z,55.40
2019-05-22T00:41:03.435Z,58.00
2019-05-22T00:43:42.358Z,57.87
2019-05-22T00:46:20.778Z,53.70
2019-05-22T00:48:54.544Z,52.77
2019-05-22T00:51:38.420Z,50.83
2019-05-22T00:54:21.779Z,48.57
2019-05-22T00:57:06.571Z,52.77
2019-05-22T00:59:41.955Z,53.97
2019-05-22T01:02:16.690Z,53.40
2019-05-22T01:04:50.924Z,54.73
2019-05-22T01:07:30.966Z,57.00
2019-05-22T01:10:06.280Z,53.07
2019-05-22T01:12:45.665Z,54.57
2019-05-22T01:15:21.926Z,56.47
2019-05-22T01:17:56.383Z,50.40
2019-05-22T01:20:32.931Z,55.43
2019-05-22T01:23:06.748Z,57.17
2019-05-22T01:25:40.542Z,58.73
2019-05-22T01:28:16.443Z,57.23
2019-05-22T01:30:53.216Z,50.27
2019-05-22T01:33:36.435Z,51.80
2019-05-22T01:36:28.982Z,52.77
2019-05-22T01:39:19.171Z,55.00
2019-05-22T01:41:54.898Z,54.47
2019-05-22T01:44:28.595Z,52.60
2019-05-22T01:47:07.489Z,56.50
2019-05-22T01:49:44.466Z,52.97
2019-05-22T01:52:16.883Z,54.50
2019-05-22T01:54:50.368Z,53.77
2019-05-22T01:57:22.994Z,52.37
2019-05-22T01:59:55.826Z,52.57
2019-05-22T02:02:30.217Z,51.60
2019-05-22T02:05:02.746Z,55.00
2019-05-22T02:07:35.711Z,49.13
2019-05-22T02:10:10.867Z,52.50
2019-05-22T02:12:57.572Z,50.87
2019-05-22T02:15:32.766Z,49.33
2019-05-22T02:18:08.577Z,53.77
2019-05-22T02:20:42.266Z,51.87
2019-05-22T02:23:17.080Z,49.83
2019-05-22T02:25:50.451Z,50.97
2019-05-22T02:28:25.108Z,56.67
2019-05-22T02:30:58.167Z,49.17
2019-05-22T02:33:30.132Z,53.43
2019-05-22T02:36:03.828Z,53.50
2019-05-22T02:38:37.672Z,51.87
2019-05-22T02:41:14.126Z,48.57
2019-05-22T02:43:45.654Z,50.30
2019-05-22T02:46:18.602Z,53.40
2019-05-22T02:48:52.418Z,52.83
2019-05-22T02:51:25.707Z,61.20
2019-05-22T02:53:59.946Z,58.60
2019-05-22T02:56:34.337Z,59.53
2019-05-22T02:59:22.159Z,53.27
2019-05-22T03:01:55.136Z,58.30
2019-05-22T03:04:31.115Z,57.60
2019-05-22T03:07:05.408Z,59.20
2019-05-22T03:09:38.888Z,59.53
2019-05-22T03:12:12.642Z,55.30
2019-05-22T03:14:46.436Z,55.40
2019-05-22T03:17:32.242Z,55.53
2019-05-22T03:20:11.728Z,53.90
2019-05-22T03:22:52.448Z,52.87
2019-05-22T03:25:25.738Z,58.67
2019-05-22T03:27:58.237Z,49.73
2019-05-22T03:30:34.853Z,49.27
2019-05-22T03:33:08.382Z,51.10
2019-05-22T03:35:47.369Z,52.37
2019-05-22T03:38:21.478Z,49.17
2019-05-22T03:40:54.895Z,54.07
2019-05-22T03:43:30.313Z,45.17
2019-05-22T03:46:10.978Z,46.40
2019-05-22T03:48:43.327Z,44.27
2019-05-22T03:51:18.639Z,46.33
2019-05-22T03:53:52.340Z,43.50
2019-05-22T03:56:39.606Z,39.53
2019-05-22T03:59:12.472Z,44.87
2019-05-22T04:02:00.880Z,40.43
2019-05-22T04:04:40.571Z,39.70
2019-05-22T04:07:21.507Z,37.87
2019-05-22T04:09:55.431Z,37.73
2019-05-22T04:12:27.464Z,38.83
2019-05-22T04:15:00.492Z,38.63
2019-05-22T04:17:35.794Z,39.00
2019-05-22T04:20:09.445Z,37.30
2019-05-22T04:22:42.318Z,38.80
2019-05-22T04:25:14.917Z,36.23
2019-05-22T04:27:54.234Z,36.30
2019-05-22T04:30:27.569Z,35.73
2019-05-22T04:33:01.080Z,37.30
2019-05-22T04:35:33.483Z,35.10
2019-05-22T04:38:06.216Z,37.80
2019-05-22T04:40:59.979Z,38.40
2019-05-22T04:43:47.607Z,36.83
2019-05-22T04:46:21.322Z,38.47
2019-05-22T04:48:55.669Z,42.03
2019-05-22T04:51:32.939Z,37.50
2019-05-22T04:54:06.724Z,36.33
2019-05-22T04:56:38.909Z,36.97
2019-05-22T04:59:12.748Z,38.63
2019-05-22T05:01:48.383Z,39.97
2019-05-22T05:04:21.269Z,41.30
2019-05-22T05:06:54.050Z,41.37
2019-05-22T05:09:27.309Z,36.50
2019-05-22T05:11:59.176Z,35.80
2019-05-22T05:14:33.790Z,39.23
2019-05-22T05:17:07.556Z,35.83
2019-05-22T05:19:39.580Z,36.07
2019-05-22T05:22:13.438Z,35.83
2019-05-22T05:27:42.445Z,36.67
2019-05-22T05:30:17.243Z,39.23
2019-05-22T05:33:07.588Z,36.13
2019-05-22T05:35:40.986Z,37.70
2019-05-22T05:38:15.913Z,35.43
2019-05-22T05:40:48.790Z,38.10
2019-05-22T05:43:23.153Z,37.23
2019-05-22T05:45:55.070Z,36.30
2019-05-22T05:48:33.133Z,34.97
2019-05-22T05:51:43.214Z,36.90
2019-05-22T05:54:16.311Z,37.40
2019-05-22T05:56:50.265Z,32.57
2019-05-22T05:59:25.048Z,39.20
2019-05-22T06:01:58.174Z,33.63
2019-05-22T06:04:35.810Z,33.90
2019-05-22T06:07:24.407Z,33.83
2019-05-22T06:10:33.699Z,31.47
2019-05-22T06:13:07.336Z,31.70
2019-05-22T06:16:09.250Z,32.07
2019-05-22T06:18:43.828Z,31.27
2019-05-22T06:21:16.714Z,26.77
2019-05-22T06:24:15.540Z,28.73
2019-05-22T06:27:13.274Z,31.10
2019-05-22T06:29:59.426Z,32.27
2019-05-22T06:33:08.666Z,31.50
2019-05-22T06:35:41.095Z,32.10
2019-05-22T06:38:55.302Z,33.77
2019-05-22T06:41:31.650Z,32.27
2019-05-22T06:44:44.820Z,33.70
2019-05-22T06:47:23.424Z,36.07
2019-05-22T06:49:56.840Z,32.33
2019-05-22T06:52:29.082Z,35.13
2019-05-22T06:55:01.011Z,33.57
2019-05-22T06:57:36.154Z,33.40
2019-05-22T07:00:18.303Z,33.13
2019-05-22T07:02:50.154Z,31.97
2019-05-22T07:05:22.245Z,32.80
2019-05-22T07:07:55.303Z,28.43
2019-05-22T07:10:29.583Z,31.23
2019-05-22T07:13:03.708Z,31.03
2019-05-22T07:15:55.640Z,27.40
2019-05-22T07:18:32.578Z,27.57
2019-05-22T07:21:06.689Z,25.77
2019-05-22T07:23:39.648Z,26.97
2019-05-22T07:26:12.490Z,24.40
2019-05-22T07:28:45.030Z,22.90
2019-05-22T07:31:18.782Z,27.53
2019-05-22T07:33:54.176Z,26.77
2019-05-22T07:36:27.314Z,25.63
2019-05-22T07:38:59.729Z,22.83
2019-05-22T07:41:31.961Z,26.63
2019-05-22T07:44:03.733Z,25.53
2019-05-22T07:46:35.936Z,21.43
2019-05-22T07:49:08.301Z,24.00
2019-05-22T07:51:51.845Z,22.37
2019-05-22T07:54:14.526Z,20.50
2019-05-22T07:56:47.606Z,21.87
2019-05-22T07:59:20.773Z,23.30
2019-05-22T08:01:53.299Z,22.17
2019-05-22T08:04:25.703Z,20.07
2019-05-22T08:06:58.343Z,20.20
2019-05-22T08:09:31.267Z,18.20
2019-05-22T08:12:03.597Z,18.40
2019-05-22T08:14:35.550Z,19.43
2019-05-22T08:17:08.755Z,20.23
2019-05-22T08:19:41.309Z,20.77
2019-05-22T08:22:15.790Z,20.70
2019-05-22T08:24:49.119Z,17.20
2019-05-22T08:27:21.484Z,18.53
2019-05-22T08:29:56.810Z,18.47
2019-05-22T08:32:28.101Z,18.53
2019-05-22T08:35:01.473Z,17.40
2019-05-22T08:37:34.846Z,17.00
2019-05-22T08:40:08.119Z,15.50
2019-05-22T08:42:41.283Z,16.27
2019-05-22T08:45:15.631Z,14.43
2019-05-22T08:47:48.185Z,15.90
2019-05-22T08:50:22.490Z,12.77
2019-05-22T08:52:56.428Z,13.90
2019-05-22T08:55:28.301Z,14.40
2019-05-22T08:58:00.820Z,13.53
2019-05-22T09:00:35.278Z,14.23
2019-05-22T09:03:07.663Z,13.07
2019-05-22T09:05:39.583Z,13.50
2019-05-22T09:08:11.827Z,13.83
2019-05-22T09:10:44.257Z,15.73
2019-05-22T09:13:16.231Z,14.83
2019-05-22T09:15:49.361Z,13.37
2019-05-22T09:18:25.332Z,13.07
2019-05-22T09:20:58.636Z,14.60
2019-05-22T09:23:31.642Z,15.30
2019-05-22T09:26:03.783Z,14.77
2019-05-22T09:28:35.667Z,13.17
2019-05-22T09:31:08.137Z,12.53
2019-05-22T09:33:40.668Z,14.83
2019-05-22T09:36:13.511Z,19.83
2019-05-22T09:38:46.186Z,14.40
2019-05-22T09:41:18.351Z,14.47
2019-05-22T09:43:50.345Z,14.77
2019-05-22T09:46:22.884Z,16.40
2019-05-22T09:48:56.880Z,14.10
2019-05-22T09:51:29.138Z,16.77
2019-05-22T09:54:01.034Z,14.97
2019-05-22T09:56:32.975Z,14.30
2019-05-22T09:59:04.841Z,14.77
2019-05-22T10:01:36.680Z,13.60
2019-05-22T10:04:08.550Z,15.70
2019-05-22T10:06:41.487Z,12.63
2019-05-22T10:09:13.781Z,13.77
2019-05-22T10:11:45.766Z,14.27
2019-05-22T10:14:19.636Z,11.80
2019-05-22T10:16:51.651Z,13.63
2019-05-22T10:19:23.893Z,11.63
2019-05-22T10:21:56.709Z,12.07
2019-05-22T10:24:30.192Z,13.97
2019-05-22T10:27:05.503Z,12.30
2019-05-22T10:29:38.105Z,12.27
2019-05-22T10:32:11.211Z,14.00
2019-05-22T10:34:43.743Z,13.83
2019-05-22T10:37:16.679Z,10.17
2019-05-22T10:39:49.106Z,11.17
2019-05-22T10:42:22.996Z,11.23
2019-05-22T10:44:55.259Z,11.47
2019-05-22T10:47:27.979Z,9.97
2019-05-22T10:50:02.079Z,12.57
2019-05-22T10:52:34.852Z,11.20
2019-05-22T10:55:08.276Z,11.13
2019-05-22T10:57:42.503Z,9.33
2019-05-22T11:00:16.194Z,9.83
2019-05-22T11:02:49.076Z,11.60
2019-05-22T11:05:23.409Z,10.20
2019-05-22T11:07:55.843Z,10.30
2019-05-22T11:10:29.992Z,11.40
2019-05-22T11:13:01.847Z,10.83
2019-05-22T11:15:34.779Z,10.00
2019-05-22T11:18:07.995Z,10.00
2019-05-22T11:20:40.843Z,9.30
2019-05-22T11:23:13.233Z,9.30
2019-05-22T11:25:46.262Z,9.37
2019-05-22T11:28:18.914Z,8.90
2019-05-22T11:30:51.231Z,11.50
2019-05-22T11:33:23.781Z,10.07
2019-05-22T11:35:56.804Z,8.60
2019-05-22T11:38:29.519Z,8.77
2019-05-22T11:41:01.515Z,9.47
2019-05-22T11:43:34.377Z,9.33
2019-05-22T11:46:12.261Z,10.40
2019-05-22T11:48:44.659Z,9.83
2019-05-22T11:51:17.239Z,9.47
2019-05-22T11:53:49.395Z,9.50
2019-05-22T11:56:22.424Z,9.90
2019-05-22T11:58:54.569Z,9.33
2019-05-22T12:01:31.301Z,9.87
2019-05-22T12:04:04.075Z,9.50
2019-05-22T12:06:38.359Z,11.57
2019-05-22T12:09:12.246Z,9.43
2019-05-22T12:11:45.759Z,9.40
2019-05-22T12:14:19.686Z,10.63
2019-05-22T12:16:53.440Z,8.30
2019-05-22T12:19:26.687Z,9.40
2019-05-22T12:21:58.528Z,8.73
2019-05-22T12:24:36.936Z,7.97
2019-05-22T12:27:07.269Z,7.80
2019-05-22T12:29:40.546Z,6.97
2019-05-22T12:32:14.560Z,6.27
2019-05-22T12:34:46.409Z,6.77
2019-05-22T12:37:18.279Z,6.50
2019-05-22T12:39:51.795Z,6.20
2019-05-22T12:42:24.961Z,6.27
2019-05-22T12:44:57.786Z,6.83
2019-05-22T12:47:30.571Z,4.83
2019-05-22T12:50:05.318Z,5.07
2019-05-22T12:52:38.963Z,5.57
2019-05-22T12:55:12.209Z,4.77
2019-05-22T12:57:44.655Z,4.90
2019-05-22T13:00:18.543Z,5.63
2019-05-22T13:02:51.926Z,4.97
2019-05-22T13:05:25.021Z,6.53
2019-05-22T13:07:57.837Z,5.10
2019-05-22T13:10:30.966Z,4.70
2019-05-22T13:13:02.918Z,4.77
2019-05-22T13:15:37.851Z,4.90
2019-05-22T13:18:12.728Z,4.10
2019-05-22T13:20:49.619Z,4.37
2019-05-22T13:23:27.028Z,4.43
2019-05-22T13:25:59.144Z,4.80
2019-05-22T13:28:31.638Z,4.23
2019-05-22T13:31:04.815Z,4.03
2019-05-22T13:33:38.493Z,3.97
2019-05-22T13:36:13.111Z,4.40
2019-05-22T13:38:46.245Z,4.00
2019-05-22T13:41:19.054Z,5.83
2019-05-22T13:43:52.044Z,5.53
2019-05-22T13:46:24.858Z,4.70
2019-05-22T13:48:56.739Z,4.93
2019-05-22T13:51:28.891Z,5.90
2019-05-22T13:54:01.738Z,4.20
2019-05-22T13:56:33.622Z,4.47
2019-05-22T13:59:06.236Z,5.47
2019-05-22T14:01:38.358Z,4.30
2019-05-22T14:04:10.829Z,5.40
2019-05-22T14:06:43.247Z,5.27
2019-05-22T14:09:21.287Z,4.93
2019-05-22T14:11:54.725Z,4.17
2019-05-22T14:14:27.403Z,4.80
2019-05-22T14:16:59.220Z,4.07
2019-05-22T14:19:32.664Z,4.03
2019-05-22T14:22:05.303Z,5.90
2019-05-22T14:24:37.407Z,4.17
2019-05-22T14:27:09.801Z,4.30
2019-05-22T14:29:41.673Z,3.67
2019-05-22T14:32:15.272Z,4.10
2019-05-22T14:34:47.499Z,4.17
2019-05-22T14:37:19.495Z,4.07
2019-05-22T14:39:51.271Z,4.53
2019-05-22T14:42:25.935Z,3.67
2019-05-22T14:45:00.531Z,5.03
2019-05-22T14:47:33.283Z,3.90
2019-05-22T14:50:05.980Z,4.00
2019-05-22T14:52:38.730Z,9.10
2019-05-22T14:55:11.785Z,4.67
2019-05-22T14:57:45.143Z,4.13
2019-05-22T15:00:19.831Z,3.37
2019-05-22T15:02:56.677Z,4.00
2019-05-22T15:05:27.819Z,3.87
2019-05-22T15:08:01.232Z,3.43
2019-05-22T15:10:34.603Z,4.17
2019-05-22T15:13:10.410Z,4.07
2019-05-22T15:15:43.054Z,4.37
2019-05-22T15:18:15.833Z,6.50
2019-05-22T15:20:56.777Z,4.37
2019-05-22T15:23:31.243Z,5.17
2019-05-22T15:26:03.317Z,4.50
2019-05-22T15:28:41.656Z,4.00
2019-05-22T15:31:15.797Z,3.80
2019-05-22T15:33:48.877Z,4.57
2019-05-22T15:36:25.157Z,5.20
2019-05-22T15:39:12.568Z,5.03
2019-05-22T15:41:46.354Z,3.97
2019-05-22T15:44:19.409Z,5.80
2019-05-22T15:46:51.303Z,4.37
2019-05-22T15:49:23.365Z,4.27
2019-05-22T15:51:56.600Z,4.23
2019-05-22T15:54:31.075Z,4.40
2019-05-22T15:57:09.560Z,4.60
2019-05-22T15:59:40.534Z,4.07
2019-05-22T16:02:16.356Z,4.80
2019-05-22T16:04:48.874Z,6.87
2019-05-22T16:07:22.512Z,5.07
2019-05-22T16:09:55.610Z,4.90
2019-05-22T16:12:35.973Z,4.07
2019-05-22T16:15:17.317Z,3.67
2019-05-22T16:17:51.154Z,5.00
2019-05-22T16:20:27.319Z,7.30
2019-05-22T16:22:59.693Z,4.03
2019-05-22T16:25:38.267Z,4.67
2019-05-22T16:28:11.309Z,5.17
2019-05-22T16:30:44.227Z,5.93
2019-05-22T16:33:17.254Z,5.13
2019-05-22T16:35:50.479Z,5.13
2019-05-22T16:38:25.691Z,4.33
2019-05-22T16:40:58.232Z,5.13
2019-05-22T16:43:48.115Z,4.70
2019-05-22T16:46:16.051Z,6.10
2019-05-22T16:48:50.625Z,4.77
2019-05-22T16:51:30.252Z,5.57
2019-05-22T16:54:14.267Z,5.73
2019-05-22T16:56:46.773Z,6.67
2019-05-22T16:59:21.361Z,5.50
2019-05-22T17:01:59.248Z,5.57
2019-05-22T17:04:29.170Z,7.87
2019-05-22T17:07:02.295Z,7.53
2019-05-22T17:09:34.499Z,6.77
2019-05-22T17:12:08.080Z,6.73
2019-05-22T17:14:40.838Z,7.90
2019-05-22T17:17:17.893Z,7.47
2019-05-22T17:19:50.979Z,6.87
2019-05-22T17:22:24.441Z,6.53
2019-05-22T17:25:02.543Z,7.00
2019-05-22T17:27:36.644Z,7.47
2019-05-22T17:30:20.476Z,6.97
2019-05-22T17:33:09.109Z,6.67
2019-05-22T17:35:43.134Z,5.70
2019-05-22T17:38:17.124Z,5.53
2019-05-22T17:40:49.761Z,7.77
2019-05-22T17:43:37.456Z,5.27
2019-05-22T17:46:10.463Z,5.70
2019-05-22T17:48:42.936Z,7.57
2019-05-22T17:51:15.467Z,6.67
2019-05-22T17:53:47.371Z,6.00
2019-05-22T17:56:19.404Z,4.80
2019-05-22T17:58:54.558Z,5.17
2019-05-22T18:01:36.457Z,4.93
2019-05-22T18:04:17.495Z,5.50
2019-05-22T18:07:03.450Z,5.80
2019-05-22T18:09:35.685Z,4.40
2019-05-22T18:12:12.549Z,4.03
2019-05-22T18:14:46.797Z,5.47
2019-05-22T18:17:19.657Z,4.87
2019-05-22T18:19:52.711Z,3.67
2019-05-22T18:22:25.051Z,3.77
2019-05-22T18:24:57.339Z,3.93
2019-05-22T18:27:30.862Z,3.80
2019-05-22T18:30:03.624Z,4.97
2019-05-22T18:32:42.743Z,4.53
2019-05-22T18:35:16.618Z,4.27
2019-05-22T18:37:49.254Z,3.57
2019-05-22T18:40:21.363Z,3.53
2019-05-22T18:42:53.859Z,4.10
2019-05-22T18:45:27.960Z,4.17
2019-05-22T18:48:01.375Z,3.87
2019-05-22T18:50:34.709Z,4.80
2019-05-22T18:53:09.064Z,4.33
2019-05-22T18:55:40.879Z,3.60
2019-05-22T18:58:13.228Z,3.40
2019-05-22T19:00:45.041Z,4.17
2019-05-22T19:03:17.688Z,4.17
2019-05-22T19:05:50.286Z,3.90
2019-05-22T19:08:22.381Z,3.70
2019-05-22T19:10:54.238Z,3.83
2019-05-22T19:13:27.213Z,5.07
2019-05-22T19:15:59.713Z,5.77
2019-05-22T19:18:33.178Z,4.97
2019-05-22T19:21:08.972Z,4.50
2019-05-22T19:23:41.511Z,5.87
2019-05-22T19:26:14.843Z,7.10
2019-05-22T19:28:48.988Z,5.87
2019-05-22T19:31:21.407Z,4.27
2019-05-22T19:33:54.416Z,4.57
2019-05-22T19:36:32.847Z,5.37
2019-05-22T19:39:09.936Z,5.20
2019-05-22T19:41:42.261Z,7.70
2019-05-22T19:44:16.838Z,8.13
2019-05-22T19:46:49.760Z,8.03
2019-05-22T19:49:22.405Z,7.23
2019-05-22T19:51:57.012Z,5.30
2019-05-22T19:54:29.430Z,4.47
2019-05-22T19:57:01.843Z,5.23
2019-05-22T19:59:35.312Z,5.60
2019-05-22T20:02:07.640Z,4.83
2019-05-22T20:04:39.998Z,5.60
2019-05-22T20:07:12.924Z,4.90
2019-05-22T20:09:46.503Z,5.23
2019-05-22T20:12:19.227Z,5.53
2019-05-22T20:14:51.856Z,4.97
2019-05-22T20:17:23.950Z,5.30
2019-05-22T20:19:59.333Z,4.87
2019-05-22T20:22:31.326Z,5.93
2019-05-22T20:25:03.797Z,5.53
2019-05-22T20:27:42.963Z,6.07
2019-05-22T20:30:18.668Z,6.33
2019-05-22T20:32:51.087Z,5.03
2019-05-22T20:35:23.049Z,4.93
2019-05-22T20:37:55.145Z,7.00
2019-05-22T20:40:27.822Z,6.43
2019-05-22T20:43:00.947Z,6.50
2019-05-22T20:45:33.697Z,5.37
2019-05-22T20:48:09.861Z,6.70
2019-05-22T20:50:43.336Z,6.73
2019-05-22T20:53:19.165Z,6.40
2019-05-22T20:55:52.394Z,6.63
2019-05-22T20:58:24.627Z,6.63
2019-05-22T21:00:57.721Z,5.37
2019-05-22T21:03:32.389Z,6.03
2019-05-22T21:06:07.933Z,7.20
2019-05-22T21:08:40.320Z,6.53
2019-05-22T21:11:15.327Z,6.90
2019-05-22T21:13:48.389Z,6.90
2019-05-22T21:16:20.281Z,7.27
2019-05-22T21:18:55.280Z,8.20
2019-05-22T21:21:27.669Z,7.53
2019-05-22T21:24:10.514Z,6.80
2019-05-22T21:26:34.700Z,6.47
2019-05-22T21:29:08.327Z,6.00
2019-05-22T21:31:41.751Z,6.83
2019-05-22T21:34:14.151Z,7.10
2019-05-22T21:36:46.587Z,6.57
2019-05-22T21:39:19.028Z,5.97
2019-05-22T21:41:51.325Z,7.10
2019-05-22T21:44:22.982Z,6.20
2019-05-22T21:46:56.059Z,5.73
2019-05-22T21:49:30.008Z,5.60
2019-05-22T21:52:03.235Z,6.83
2019-05-22T21:54:35.914Z,7.30
2019-05-22T21:57:10.249Z,7.13
2019-05-22T21:59:42.543Z,6.83
2019-05-22T22:02:20.685Z,8.53
2019-05-22T22:04:53.627Z,7.97
2019-05-22T22:07:26.004Z,8.90
2019-05-22T22:09:59.566Z,7.80
2019-05-22T22:12:34.427Z,8.43
2019-05-22T22:15:06.915Z,6.73
2019-05-22T22:17:39.672Z,9.00
2019-05-22T22:20:13.003Z,6.43
2019-05-22T22:22:45.367Z,8.00
2019-05-22T22:25:18.272Z,9.13
2019-05-22T22:27:50.233Z,7.93
2019-05-22T22:30:36.500Z,7.33
2019-05-22T22:33:10.776Z,6.70
2019-05-22T22:35:44.088Z,9.03
2019-05-22T22:38:19.269Z,8.53
2019-05-22T22:40:53.761Z,6.80
2019-05-22T22:43:30.339Z,6.27
2019-05-22T22:46:27.001Z,7.07
2019-05-22T22:49:01.992Z,7.43
2019-05-22T22:51:35.554Z,7.30
2019-05-22T22:54:08.238Z,8.90
2019-05-22T22:56:41.058Z,7.03
2019-05-22T22:59:14.280Z,9.00
2019-05-22T23:01:48.645Z,7.53
2019-05-22T23:04:24.654Z,8.10
2019-05-22T23:07:04.693Z,7.27
2019-05-22T23:09:39.779Z,7.97
2019-05-22T23:12:12.867Z,7.47
2019-05-22T23:14:50.951Z,8.60
2019-05-22T23:17:22.810Z,10.50
2019-05-22T23:19:54.291Z,8.53
2019-05-22T23:22:27.614Z,8.87
2019-05-22T23:25:03.632Z,7.73
2019-05-22T23:27:36.861Z,8.47
2019-05-22T23:30:11.002Z,8.47
2019-05-22T23:32:44.255Z,9.50
2019-05-22T23:35:17.487Z,7.30
2019-05-22T23:37:50.225Z,8.57
2019-05-22T23:40:27.711Z,8.10
2019-05-22T23:43:02.104Z,10.17
2019-05-22T23:45:35.099Z,10.07
2019-05-22T23:48:14.723Z,8.50
2019-05-22T23:50:49.026Z,9.10
2019-05-22T23:53:23.639Z,10.07
2019-05-22T23:55:56.972Z,9.20
2019-05-22T23:58:29.398Z,10.63
